Time;durP1;ratioP1;P1;durP2;ratioP2;P2;SDS_P1;SDS_P2;PMS_P1;PMS_P2;Temp;Humidity;BMP_temperature;BMP_pressure;BME280_temperature;BME280_humidity;BME280_pressure;Samples;Min_cycle;Max_cycle;Signal;HPM_P1;HPM_P2
2022/08/17 00:00:22;;;;;;;;;17.67;16.67;;;;;22.33;65.39;100394.47;5120514;27;45447;-64
2022/08/17 00:03:00;;;;;;;;;15.33;14.67;;;;;22.48;65.28;100407.63;5120605;27;45408;-63
2022/08/17 00:05:27;;;;;;;;;13.67;13.67;;;;;22.27;65.16;100368.31;5120334;27;47418;-64
2022/08/17 00:07:53;;;;;;;;;14.67;13.33;;;;;22.33;65.64;100393.66;5120361;27;45436;-64
2022/08/17 00:10:18;;;;;;;;;15.33;14.00;;;;;21.74;65.61;100290.50;5118991;27;45397;-64
2022/08/17 00:12:45;;;;;;;;;16.00;16.00;;;;;22.21;65.72;100373.81;5120630;27;45409;-64
2022/08/17 00:15:12;;;;;;;;;14.00;13.67;;;;;22.24;66.09;100395.03;5120221;27;46990;-64
2022/08/17 00:17:38;;;;;;;;;14.33;14.33;;;;;22.17;65.95;100379.69;5120153;27;45579;-64
2022/08/17 00:20:04;;;;;;;;;15.33;14.33;;;;;22.12;66.19;100376.03;5118859;27;45315;-63
2022/08/17 00:22:29;;;;;;;;;26.67;23.33;;;;;22.20;66.18;100391.13;5119111;27;45279;-63
2022/08/17 00:24:55;;;;;;;;;29.67;25.33;;;;;22.20;66.11;100380.28;5119611;27;51143;-63
2022/08/17 00:27:20;;;;;;;;;28.67;27.33;;;;;22.08;66.71;100382.97;5119832;27;45385;-63
2022/08/17 00:29:45;;;;;;;;;28.00;25.33;;;;;21.64;66.75;100297.53;5118855;27;45342;-63
2022/08/17 00:32:12;;;;;;;;;38.00;35.00;;;;;22.12;66.63;100386.84;5120304;27;45270;-63
2022/08/17 00:34:38;;;;;;;;;36.00;33.00;;;;;21.92;66.92;100357.31;5120056;27;45406;-63
2022/08/17 00:37:03;;;;;;;;;35.33;30.67;;;;;22.02;67.01;100379.22;5119793;27;45145;-63
2022/08/17 00:39:28;;;;;;;;;37.00;30.00;;;;;22.02;67.00;100381.94;5119901;27;45381;-63
2022/08/17 00:41:54;;;;;;;;;37.00;31.67;;;;;22.05;66.95;100381.53;5119805;27;45295;-63
2022/08/17 00:44:19;;;;;;;;;34.33;29.00;;;;;21.98;66.60;100367.22;5118292;27;47501;-63
2022/08/17 00:46:46;;;;;;;;;27.33;25.00;;;;;22.12;66.75;100370.63;5119790;27;45226;-62
2022/08/17 00:49:13;;;;;;;;;32.67;30.33;;;;;22.13;66.67;100356.00;5119435;27;45760;-63
2022/08/17 00:51:51;;;;;;;;;28.00;22.67;;;;;21.54;66.85;100269.09;5118471;27;45426;-63
2022/08/17 00:54:27;;;;;;;;;26.67;24.33;;;;;22.12;66.77;100373.31;5119262;27;48331;-63
2022/08/17 00:56:57;;;;;;;;;24.00;19.33;;;;;22.04;66.71;100366.34;5119353;27;45314;-63
2022/08/17 00:59:27;;;;;;;;;19.00;19.00;;;;;22.08;66.63;100369.41;5119857;27;45301;-63
2022/08/17 01:01:52;;;;;;;;;25.67;24.33;;;;;22.03;66.63;100372.78;5119800;27;45456;-63
2022/08/17 01:04:20;;;;;;;;;24.33;21.67;;;;;22.07;66.82;100374.00;5119301;27;46364;-64
2022/08/17 01:06:48;;;;;;;;;22.67;18.67;;;;;22.11;66.92;100390.63;5118357;27;45247;-63
2022/08/17 01:09:15;;;;;;;;;23.00;22.00;;;;;22.09;67.09;100385.44;5119682;27;45248;-64
2022/08/17 01:11:41;;;;;;;;;25.67;24.00;;;;;22.15;66.96;100387.22;5119532;27;45452;-63
2022/08/17 01:14:07;;;;;;;;;22.33;20.67;;;;;22.10;66.72;100360.00;5119035;27;46533;-63
2022/08/17 01:16:34;;;;;;;;;27.00;25.00;;;;;21.65;67.26;100288.34;5119167;27;45200;-63
2022/08/17 01:19:06;;;;;;;;;26.33;23.33;;;;;22.12;66.92;100366.03;5119270;27;45422;-63
2022/08/17 01:22:06;;;;;;;;;25.67;24.33;;;;;22.20;66.96;100383.81;5119605;27;45517;-63
2022/08/17 01:24:33;;;;;;;;;26.67;23.33;;;;;22.21;66.91;100401.72;5118681;27;45938;-63
2022/08/17 01:26:59;;;;;;;;;30.33;26.00;;;;;22.25;66.85;100391.28;5119058;27;45499;-63
2022/08/17 01:29:29;;;;;;;;;25.00;22.00;;;;;22.10;66.96;100357.31;5119434;27;45237;-62
2022/08/17 01:31:57;;;;;;;;;24.33;21.00;;;;;22.16;66.83;100374.50;5119230;27;46026;-63
2022/08/17 01:34:26;;;;;;;;;18.67;16.67;;;;;22.19;66.98;100382.16;5119000;27;46596;-63
2022/08/17 01:36:52;;;;;;;;;23.33;17.67;;;;;22.12;66.83;100376.03;5117352;27;45720;-63
2022/08/17 01:39:36;;;;;;;;;18.00;14.67;;;;;22.15;66.71;100381.81;5118937;27;45190;-64
2022/08/17 01:42:17;;;;;;;;;19.00;16.00;;;;;22.09;66.84;100377.31;5119204;27;45409;-63
2022/08/17 01:44:42;;;;;;;;;14.67;14.33;;;;;22.02;67.39;100381.09;5118661;27;45724;-63
2022/08/17 01:47:07;;;;;;;;;17.67;17.67;;;;;22.03;67.24;100382.78;5118663;27;45256;-63
2022/08/17 01:49:33;;;;;;;;;18.33;16.33;;;;;21.97;67.46;100376.38;5118613;27;45259;-63
2022/08/17 01:52:05;;;;;;;;;18.00;15.67;;;;;21.95;67.84;100391.19;5117333;27;45433;-63
2022/08/17 01:54:31;;;;;;;;;21.67;17.33;;;;;21.91;67.67;100373.78;5118384;27;47471;-63
2022/08/17 01:56:57;;;;;;;;;15.33;15.33;;;;;21.90;67.78;100381.06;5118249;27;45415;-63
2022/08/17 01:59:22;;;;;;;;;22.00;19.67;;;;;21.78;68.36;100377.44;5118694;27;45367;-62
2022/08/17 02:01:48;;;;;;;;;18.67;18.67;;;;;21.81;68.27;100401.34;5118432;27;45304;-63
2022/08/17 02:04:13;;;;;;;;;19.00;17.33;;;;;21.76;68.56;100395.78;5118625;27;52442;-63
2022/08/17 02:06:42;;;;;;;;;14.33;14.33;;;;;21.73;68.74;100404.38;5118573;27;45337;-63
2022/08/17 02:09:08;;;;;;;;;16.00;16.00;;;;;21.74;68.44;100403.31;5118458;27;45327;-63
2022/08/17 02:11:38;;;;;;;;;21.33;18.67;;;;;21.74;68.55;100400.59;5117158;27;45514;-64
2022/08/17 02:14:07;;;;;;;;;16.00;15.00;;;;;21.64;68.96;100398.44;5118428;27;46676;-64
2022/08/17 02:16:34;;;;;;;;;18.00;15.33;;;;;21.39;69.31;100371.44;5118244;27;45381;-64
2022/08/17 02:19:00;;;;;;;;;18.00;15.67;;;;;21.60;69.39;100407.22;5116769;27;45327;-63
2022/08/17 02:21:26;;;;;;;;;21.33;18.33;;;;;21.58;69.10;100396.63;5118396;27;45746;-62
2022/08/17 02:23:52;;;;;;;;;19.33;17.00;;;;;21.48;69.21;100386.34;5118203;27;45437;-64
2022/08/17 02:26:17;;;;;;;;;15.67;13.67;;;;;21.62;68.73;100394.28;5116774;27;45495;-64
2022/08/17 02:28:43;;;;;;;;;18.33;16.67;;;;;21.65;68.84;100396.56;5118340;27;45324;-64
2022/08/17 02:31:10;;;;;;;;;20.00;17.00;;;;;21.68;68.81;100391.53;5118291;27;45394;-63
2022/08/17 02:33:37;;;;;;;;;18.33;17.33;;;;;21.71;68.25;100406.47;5117990;27;46680;-64
2022/08/17 02:36:03;;;;;;;;;18.00;13.33;;;;;21.47;68.33;100364.91;5117936;27;45189;-63
2022/08/17 02:38:30;;;;;;;;;15.00;14.67;;;;;21.66;68.79;100407.16;5117756;27;45179;-63
2022/08/17 02:40:57;;;;;;;;;18.33;16.67;;;;;21.26;68.91;100336.44;5118028;27;45445;-64
2022/08/17 02:43:22;;;;;;;;;14.33;14.33;;;;;21.70;68.76;100411.06;5117928;27;47051;-63
2022/08/17 02:45:48;;;;;;;;;17.67;16.33;;;;;21.62;68.85;100392.41;5116690;27;45936;-64
2022/08/17 02:48:13;;;;;;;;;15.00;15.00;;;;;21.72;68.45;100414.38;5117921;27;45422;-64
2022/08/17 02:50:38;;;;;;;;;16.67;16.33;;;;;21.73;68.94;100410.59;5117607;27;46951;-64
2022/08/17 02:53:04;;;;;;;;;16.67;16.33;;;;;21.55;68.97;100392.47;5117239;27;46156;-63
2022/08/17 02:55:33;;;;;;;;;17.33;15.67;;;;;21.34;68.67;100346.94;5117998;27;45457;-64
2022/08/17 02:57:59;;;;;;;;;15.33;14.33;;;;;21.69;68.48;100406.72;5118051;27;45258;-64
2022/08/17 03:00:28;;;;;;;;;20.33;19.00;;;;;21.71;68.29;100407.31;5118351;27;45386;-64
2022/08/17 03:02:56;;;;;;;;;20.00;19.00;;;;;21.74;67.91;100400.59;5117741;27;47593;-64
2022/08/17 03:05:25;;;;;;;;;19.33;17.00;;;;;21.76;67.44;100393.09;5117686;27;45471;-63
2022/08/17 03:07:51;;;;;;;;;17.67;16.67;;;;;21.32;67.50;100315.78;5117653;27;45287;-64
2022/08/17 03:10:17;;;;;;;;;14.00;14.00;;;;;21.79;67.75;100384.50;5117722;27;45404;-64
2022/08/17 03:12:44;;;;;;;;;19.67;18.33;;;;;21.64;67.97;100354.34;5117564;27;45837;-63
2022/08/17 03:15:13;;;;;;;;;19.00;16.00;;;;;20.80;67.31;100215.22;5117637;27;45319;-64
2022/08/17 03:17:39;;;;;;;;;21.67;18.67;;;;;21.79;67.15;100376.41;5117600;27;45382;-63
2022/08/17 03:20:06;;;;;;;;;18.00;16.67;;;;;21.37;67.54;100305.94;5117885;27;45260;-64
2022/08/17 03:22:40;;;;;;;;;16.67;15.33;;;;;21.84;67.54;100387.41;5117244;27;45676;-63
2022/08/17 03:25:08;;;;;;;;;14.33;14.33;;;;;21.68;67.24;100350.13;5117285;27;45353;-63
2022/08/17 03:27:34;;;;;;;;;17.33;17.33;;;;;21.86;67.37;100360.94;5117590;27;45852;-65
2022/08/17 03:29:59;;;;;;;;;21.67;18.67;;;;;21.34;67.27;100273.94;5118198;27;45542;-63
2022/08/17 03:32:25;;;;;;;;;17.33;15.33;;;;;21.94;67.25;100374.13;5120837;27;47232;-63
2022/08/17 03:34:50;;;;;;;;;13.33;13.33;;;;;21.88;66.95;100348.00;5120732;27;45450;-63
2022/08/17 03:37:15;;;;;;;;;16.67;16.33;;;;;21.85;67.36;100338.44;5120964;27;45340;-63
2022/08/17 03:39:41;;;;;;;;;15.67;14.33;;;;;21.75;67.23;100331.91;5121466;27;45443;-64
2022/08/17 03:42:12;;;;;;;;;18.67;18.67;;;;;21.89;67.44;100359.66;5120537;27;47719;-63
2022/08/17 03:44:37;;;;;;;;;16.33;15.33;;;;;21.91;67.51;100366.47;5120527;27;45414;-63
2022/08/17 03:58:09;;;;;;;;;17.00;16.33;;;;;21.91;67.32;100362.94;5120652;27;45192;-64
2022/08/17 04:00:35;;;;;;;;;19.33;19.33;;;;;21.90;67.50;100361.28;5120569;27;45195;-64
2022/08/17 04:03:02;;;;;;;;;20.33;16.67;;;;;21.90;67.30;100367.53;5120147;27;47132;-64
2022/08/17 04:05:27;;;;;;;;;16.67;15.67;;;;;21.99;66.89;100382.41;5120270;27;45380;-64
2022/08/17 04:07:52;;;;;;;;;21.33;16.67;;;;;21.98;67.08;100394.28;5120058;27;49512;-64
2022/08/17 04:10:18;;;;;;;;;17.33;15.00;;;;;21.90;66.73;100386.47;5136191;27;45547;-64
2022/08/17 04:12:51;;;;;;;;;16.33;16.33;;;;;22.03;66.89;100399.84;5119526;27;57010;-63
2022/08/17 04:15:17;;;;;;;;;20.67;18.00;;;;;21.90;66.87;100377.53;5120116;27;45391;-63
2022/08/17 04:17:43;;;;;;;;;21.33;18.00;;;;;22.09;66.82;100404.38;5120212;27;45450;-63
2022/08/17 04:20:11;;;;;;;;;23.00;20.33;;;;;21.55;67.07;100311.34;5120313;27;45368;-63
2022/08/17 04:22:36;;;;;;;;;17.67;16.33;;;;;22.13;66.79;100427.25;5120068;27;47387;-63
2022/08/17 04:25:07;;;;;;;;;16.33;15.67;;;;;22.12;66.69;100409.34;5120045;27;45251;-62
2022/08/17 04:27:33;;;;;;;;;16.00;15.33;;;;;22.10;66.85;100410.63;5120158;27;45372;-62
2022/08/17 04:29:59;;;;;;;;;14.67;14.33;;;;;21.86;67.04;100388.00;5120236;27;45204;-64
2022/08/17 04:32:24;;;;;;;;;16.00;16.00;;;;;21.98;66.84;100412.41;5119697;27;47492;-63
2022/08/17 04:34:50;;;;;;;;;17.67;17.67;;;;;21.35;67.27;100326.97;5119359;27;45383;-64
2022/08/17 04:37:15;;;;;;;;;16.33;15.33;;;;;21.88;67.19;100420.25;5119984;27;45255;-63
2022/08/17 04:42:05;;;;;;;;;18.33;17.67;;;;;21.31;67.13;100314.94;5119751;27;45499;-62
2022/08/17 04:42:26;;;;;;;;;20.67;19.33;;;;;21.78;67.54;100404.50;5118033;27;46040;-64
2022/08/17 04:44:51;;;;;;;;;24.00;22.33;;;;;21.73;67.25;100396.25;5119649;27;45381;-62
2022/08/17 04:47:16;;;;;;;;;20.67;19.33;;;;;21.78;67.61;100408.03;5119466;27;45289;-64
2022/08/17 04:49:41;;;;;;;;;18.67;18.67;;;;;21.63;67.46;100379.72;5119331;27;45497;-63
2022/08/17 04:52:07;;;;;;;;;24.00;22.67;;;;;21.80;67.54;100402.41;5118489;27;66979;-63
2022/08/17 04:54:32;;;;;;;;;22.33;20.67;;;;;21.90;67.05;100400.00;5117622;27;45245;-63
2022/08/17 04:56:57;;;;;;;;;19.67;18.33;;;;;21.94;66.92;100395.78;5119385;27;45660;-63
2022/08/17 04:59:23;;;;;;;;;26.33;22.00;;;;;21.97;67.15;100384.50;5119662;27;45479;-63
2022/08/17 05:01:50;;;;;;;;;23.00;22.00;;;;;22.00;67.52;100384.03;5119098;27;47289;-62
2022/08/17 05:04:20;;;;;;;;;22.33;19.67;;;;;22.00;66.61;100373.22;5119058;27;45281;-63
2022/08/17 05:06:46;;;;;;;;;22.33;19.33;;;;;21.88;66.26;100363.41;5119116;27;45286;-63
2022/08/17 05:09:12;;;;;;;;;18.67;18.67;;;;;21.90;66.11;100378.34;5118269;27;45605;-63
2022/08/17 05:11:38;;;;;;;;;15.33;13.00;;;;;21.83;66.29;100389.28;5119270;27;46610;-63
2022/08/17 05:14:03;;;;;;;;;22.67;22.67;;;;;21.80;66.19;100378.06;5119453;27;45465;-63
2022/08/17 05:16:29;;;;;;;;;22.00;20.00;;;;;21.78;66.52;100388.28;5119236;27;45417;-64
2022/08/17 05:18:55;;;;;;;;;20.67;19.67;;;;;21.65;67.38;100374.91;5117855;27;45336;-63
2022/08/17 05:21:22;;;;;;;;;24.00;23.00;;;;;21.75;67.17;100402.25;5118825;27;46763;-63
2022/08/17 05:23:48;;;;;;;;;20.00;19.00;;;;;21.71;67.55;100399.19;5117494;27;45538;-64
2022/08/17 05:26:17;;;;;;;;;23.33;22.00;;;;;21.58;67.60;100374.16;5117403;27;45466;-64
2022/08/17 05:28:42;;;;;;;;;20.67;20.00;;;;;21.67;67.82;100379.06;5117644;27;45493;-63
2022/08/17 05:31:08;;;;;;;;;19.67;19.67;;;;;21.56;67.82;100372.50;5118862;27;46403;-64
2022/08/17 05:33:36;;;;;;;;;21.33;19.00;;;;;21.03;68.13;100285.69;5118614;27;45216;-63
2022/08/17 05:36:04;;;;;;;;;22.00;21.00;;;;;21.58;68.19;100371.44;5118962;27;45312;-63
2022/08/17 05:38:30;;;;;;;;;24.33;20.67;;;;;21.62;67.95;100375.34;5118907;27;45357;-64
2022/08/17 05:40:56;;;;;;;;;24.67;23.00;;;;;21.57;68.16;100367.91;5118962;27;45594;-63
2022/08/17 05:43:25;;;;;;;;;26.67;26.67;;;;;21.66;68.00;100382.81;5118653;27;45299;-63
2022/08/17 05:45:56;;;;;;;;;29.00;27.00;;;;;21.65;68.18;100380.34;5118736;27;45459;-64
2022/08/17 05:48:23;;;;;;;;;27.00;24.33;;;;;21.56;67.60;100364.38;5118782;27;45246;-63
2022/08/17 05:51:01;;;;;;;;;25.00;24.33;;;;;21.71;67.64;100374.84;5118288;27;45586;-63
2022/08/17 05:53:38;;;;;;;;;28.67;23.33;;;;;21.68;67.58;100359.06;5118196;27;45339;-65
2022/08/17 05:56:03;;;;;;;;;23.67;21.00;;;;;21.79;67.15;100371.00;5118705;27;45459;-64
2022/08/17 05:58:31;;;;;;;;;27.33;26.00;;;;;21.32;67.43;100273.34;5118314;27;45371;-64
2022/08/17 06:01:06;;;;;;;;;26.00;24.00;;;;;21.97;67.31;100360.16;5118231;27;46070;-63
2022/08/17 06:03:50;;;;;;;;;26.67;25.00;;;;;22.04;67.11;100363.66;5117768;27;45312;-65
2022/08/17 06:06:39;;;;;;;;;27.00;27.00;;;;;22.12;67.10;100371.44;5116908;27;45369;-64
2022/08/17 06:09:10;;;;;;;;;28.33;25.67;;;;;22.10;66.89;100370.84;5116652;27;45481;-65
2022/08/17 06:11:50;;;;;;;;;26.33;25.00;;;;;22.18;66.75;100372.41;5117853;27;45306;-72
2022/08/17 06:14:46;;;;;;;;;23.33;23.00;;;;;22.29;66.53;100368.09;5117908;27;45231;-65
2022/08/17 06:17:17;;;;;;;;;23.00;23.00;;;;;21.85;65.89;100287.03;5111181;27;45441;-66
2022/08/17 06:19:56;;;;;;;;;22.00;19.67;;;;;22.36;65.68;100368.81;5118602;27;45324;-63
2022/08/17 06:22:26;;;;;;;;;24.00;22.00;;;;;22.50;65.45;100389.25;5118080;27;46593;-63
2022/08/17 06:25:07;;;;;;;;;27.67;26.67;;;;;22.50;65.28;100405.50;5117774;27;45419;-64
2022/08/17 06:27:48;;;;;;;;;22.00;21.67;;;;;22.02;65.74;100337.78;5118250;27;45304;-64
2022/08/17 06:30:19;;;;;;;;;23.67;23.00;;;;;22.46;65.40;100412.44;5118510;27;45301;-64
2022/08/17 06:32:48;;;;;;;;;26.00;26.00;;;;;21.85;65.23;100337.63;5117721;27;46189;-63
2022/08/17 06:35:20;;;;;;;;;35.00;31.33;;;;;22.38;65.73;100432.53;5117748;27;45494;-65
2022/08/17 06:38:04;;;;;;;;;25.33;23.33;;;;;22.16;66.14;100436.78;5117661;27;45487;-64
2022/08/17 06:40:30;;;;;;;;;31.33;28.00;;;;;22.21;66.12;100444.22;5118175;27;45331;-63
2022/08/17 06:43:31;;;;;;;;;32.00;31.00;;;;;22.20;66.12;100437.16;5117655;27;46610;-64
2022/08/17 06:46:05;;;;;;;;;31.33;26.33;;;;;22.24;65.92;100443.78;5116686;27;45512;-64
2022/08/17 06:48:48;;;;;;;;;29.00;25.33;;;;;22.22;66.39;100441.28;5117721;27;45456;-64
2022/08/17 06:51:26;;;;;;;;;27.33;23.67;;;;;22.21;66.21;100436.09;5118158;27;45345;-64
2022/08/17 06:53:58;;;;;;;;;24.67;23.67;;;;;21.63;66.01;100352.69;5117543;27;45853;-64
2022/08/17 06:56:52;;;;;;;;;32.33;29.00;;;;;22.13;66.29;100434.53;5117474;27;45244;-64
2022/08/17 06:59:24;;;;;;;;;25.67;25.67;;;;;22.10;65.98;100427.69;5111290;27;45294;-64
2022/08/17 07:01:51;;;;;;;;;30.33;28.33;;;;;22.24;65.79;100435.66;5117857;27;45444;-65
2022/08/17 07:04:29;;;;;;;;;30.00;25.00;;;;;22.19;65.44;100420.06;5117297;27;46787;-62
2022/08/17 07:08:00;;;;;;;;;27.67;25.00;;;;;22.34;65.50;100438.66;5121257;27;45231;-64
2022/08/17 07:09:48;;;;;;;;;26.00;24.00;;;;;22.37;65.19;100439.00;5120917;27;45246;-64
2022/08/17 07:12:17;;;;;;;;;25.00;23.00;;;;;22.31;65.01;100449.94;5121267;27;45525;-63
2022/08/17 07:14:55;;;;;;;;;21.67;20.33;;;;;21.68;64.97;100355.53;5120648;27;46843;-63
2022/08/17 07:17:23;;;;;;;;;21.00;20.00;;;;;22.26;65.45;100463.34;5119580;27;45615;-63
2022/08/17 07:19:52;;;;;;;;;23.33;23.33;;;;;21.65;65.56;100364.09;5120866;27;45308;-63
2022/08/17 07:22:23;;;;;;;;;22.33;21.33;;;;;22.25;65.33;100467.94;5121085;27;45381;-65
2022/08/17 07:24:56;;;;;;;;;20.00;20.00;;;;;22.21;65.41;100463.19;5120584;27;47133;-63
2022/08/17 07:27:31;;;;;;;;;25.33;23.33;;;;;22.28;65.51;100485.59;5121068;27;45388;-67
2022/08/17 07:30:16;;;;;;;;;24.33;23.67;;;;;21.82;65.40;100421.94;5121268;27;45387;-64
2022/08/17 07:32:52;;;;;;;;;20.00;20.00;;;;;22.26;65.72;100501.25;5120586;27;45589;-62
2022/08/17 07:35:29;;;;;;;;;24.00;22.00;;;;;22.11;65.54;100494.34;5120528;27;46646;-64
2022/08/17 07:38:13;;;;;;;;;22.67;18.33;;;;;22.21;65.71;100511.91;5120852;27;45486;-64
2022/08/17 07:41:01;;;;;;;;;20.33;20.33;;;;;22.24;65.47;100515.03;5120878;27;45202;-63
2022/08/17 07:43:30;;;;;;;;;19.67;17.67;;;;;22.13;65.69;100497.63;5120813;27;45225;-64
2022/08/17 07:48:51;;;;;;;;;20.00;18.33;;;;;21.72;65.91;100463.06;5120454;27;45403;-64
2022/08/17 07:51:19;;;;;;;;;20.67;20.67;;;;;21.99;66.76;100511.50;5120920;27;45424;-65
2022/08/17 07:53:44;;;;;;;;;16.00;16.00;;;;;22.04;66.61;100515.25;5120789;27;45972;-64
2022/08/17 07:56:12;;;;;;;;;21.33;17.33;;;;;22.11;66.16;100520.59;5120310;27;46942;-64
2022/08/17 07:58:38;;;;;;;;;17.00;17.00;;;;;22.08;66.29;100523.75;5120681;27;45518;-64
2022/08/17 08:01:14;;;;;;;;;21.33;17.00;;;;;21.61;66.04;100457.56;5120680;27;45242;-64
2022/08/17 08:03:41;;;;;;;;;23.33;22.00;;;;;21.75;66.29;100473.44;5120652;27;45277;-65
2022/08/17 08:06:19;;;;;;;;;23.00;21.33;;;;;22.06;66.36;100521.25;5120243;27;45938;-65
2022/08/17 08:08:50;;;;;;;;;22.00;21.00;;;;;22.07;66.30;100535.63;5120398;27;45281;-65
2022/08/17 08:11:30;;;;;;;;;20.33;19.33;;;;;22.13;66.37;100535.53;5120405;27;45265;-63
2022/08/17 08:14:19;;;;;;;;;23.67;21.67;;;;;21.96;66.53;100539.03;5120491;27;45285;-65
2022/08/17 08:16:57;;;;;;;;;18.67;18.67;;;;;21.93;66.94;100534.91;5119880;27;47521;-63
2022/08/17 08:19:24;;;;;;;;;20.67;17.67;;;;;21.88;66.61;100537.44;5120008;27;45282;-65
2022/08/17 08:22:06;;;;;;;;;17.33;17.33;;;;;21.84;67.08;100542.47;5120025;27;45464;-63
2022/08/17 08:25:10;;;;;;;;;18.33;18.33;;;;;21.93;66.92;100534.91;5120193;27;45579;-64
2022/08/17 08:27:57;;;;;;;;;23.33;22.33;;;;;22.10;66.50;100554.94;5055585;28;46535;-65
2022/08/17 08:30:22;;;;;;;;;17.67;16.33;;;;;22.12;66.14;100550.13;5055918;28;45409;-64
2022/08/17 08:33:08;;;;;;;;;20.00;18.00;;;;;22.15;66.51;100552.38;5095018;27;45340;-64
2022/08/17 08:35:55;;;;;;;;;21.67;20.67;;;;;22.28;65.84;100547.91;5120036;27;45369;-64
2022/08/17 08:38:46;;;;;;;;;19.00;19.00;;;;;22.38;65.64;100534.63;5119512;27;46488;-63
2022/08/17 08:41:33;;;;;;;;;18.67;18.67;;;;;22.52;65.41;100543.44;5119703;27;45574;-64
2022/08/17 08:44:18;;;;;;;;;16.33;15.67;;;;;22.61;64.84;100553.72;5119536;27;45263;-65
2022/08/17 08:47:07;;;;;;;;;24.33;20.33;;;;;22.65;65.60;100549.53;5119636;27;45420;-63
2022/08/17 08:49:42;;;;;;;;;30.00;24.67;;;;;22.55;64.63;100518.59;5117827;27;48705;-63
2022/08/17 08:52:49;;;;;;;;;19.33;17.67;;;;;22.81;64.60;100552.66;5119534;27;45527;-65
2022/08/17 08:55:31;;;;;;;;;22.33;20.00;;;;;22.86;64.68;100552.84;5117955;27;45413;-64
2022/08/17 08:58:03;;;;;;;;;21.33;21.33;;;;;22.49;64.53;100490.53;5119819;27;45753;-63
2022/08/17 09:00:35;;;;;;;;;27.67;24.33;;;;;22.87;64.57;100557.22;5117767;27;47759;-64
2022/08/17 09:03:39;;;;;;;;;19.33;17.00;;;;;22.89;64.14;100541.53;5118930;27;45341;-62
2022/08/17 09:06:43;;;;;;;;;22.33;22.33;;;;;22.99;64.72;100544.50;5119177;27;45522;-64
2022/08/17 09:09:30;;;;;;;;;20.00;18.00;;;;;23.04;64.05;100563.66;5118361;27;45424;-64
2022/08/17 09:12:28;;;;;;;;;23.00;23.00;;;;;23.01;63.12;100548.63;5118817;27;45694;-64
2022/08/17 09:15:05;;;;;;;;;21.33;19.33;;;;;22.87;63.57;100519.25;5119065;27;45326;-63
2022/08/17 09:17:37;;;;;;;;;22.00;21.33;;;;;23.02;63.41;100541.31;5118922;27;45244;-63
2022/08/17 09:20:31;;;;;;;;;24.33;23.00;;;;;22.97;63.63;100546.63;5119167;27;45402;-64
2022/08/17 09:23:21;;;;;;;;;20.00;20.00;;;;;22.89;63.37;100531.53;5118898;27;46488;-63
2022/08/17 09:26:12;;;;;;;;;22.67;21.00;;;;;23.01;63.27;100553.22;5117793;27;45714;-64
2022/08/17 09:28:43;;;;;;;;;22.00;18.67;;;;;23.00;62.94;100548.88;5109315;27;45267;-64
2022/08/17 09:31:15;;;;;;;;;23.33;23.33;;;;;22.97;63.21;100549.34;5117593;27;45351;-62
2022/08/17 09:33:44;;;;;;;;;22.33;22.33;;;;;22.99;63.10;100537.19;5118715;27;45735;-63
2022/08/17 09:36:31;;;;;;;;;25.33;25.33;;;;;22.99;63.17;100544.50;5118405;27;45328;-63
2022/08/17 09:39:09;;;;;;;;;21.00;20.00;;;;;23.01;62.42;100543.22;5118599;27;45312;-65
2022/08/17 09:41:44;;;;;;;;;16.33;16.33;;;;;23.01;62.82;100542.38;5118862;27;45455;-64
2022/08/17 09:44:37;;;;;;;;;22.67;20.33;;;;;23.01;62.77;100548.63;5118678;27;46552;-64
2022/08/17 09:47:11;;;;;;;;;23.00;23.00;;;;;23.07;62.04;100563.19;5118364;27;45296;-65
2022/08/17 09:49:43;;;;;;;;;24.00;24.00;;;;;23.08;62.56;100570.25;5118742;27;45520;-64
2022/08/17 09:52:23;;;;;;;;;26.33;24.33;;;;;22.85;62.40;100562.84;5117337;27;45562;-64
2022/08/17 09:54:51;;;;;;;;;23.67;19.67;;;;;23.03;62.47;100570.13;5118192;27;46935;-64
2022/08/17 09:57:22;;;;;;;;;24.00;21.33;;;;;23.01;63.07;100574.94;5118252;27;45527;-64
2022/08/17 10:00:22;;;;;;;;;23.00;22.00;;;;;23.03;62.84;100584.50;5118256;27;45535;-64
2022/08/17 10:03:08;;;;;;;;;26.33;24.00;;;;;23.02;63.09;100587.41;5084817;27;45590;-64
2022/08/17 10:05:50;;;;;;;;;28.33;24.33;;;;;23.00;63.06;100594.97;5117984;27;46671;-64
2022/08/17 10:08:38;;;;;;;;;29.67;24.00;;;;;23.05;63.34;100595.13;5118496;27;45522;-64
2022/08/17 10:11:14;;;;;;;;;24.33;23.33;;;;;23.05;62.48;100587.00;5118600;27;45404;-64
2022/08/17 10:13:44;;;;;;;;;25.33;23.67;;;;;22.95;62.28;100565.00;5118544;27;45369;-63
2022/08/17 10:16:29;;;;;;;;;26.33;24.33;;;;;23.12;61.86;100595.03;5118246;27;46582;-63
2022/08/17 10:19:01;;;;;;;;;28.33;27.00;;;;;23.12;62.24;100587.72;5118121;27;45190;-64
2022/08/17 10:27:10;;;;;;;;;27.33;27.33;;;;;23.36;61.26;100589.44;5117536;27;45356;-64
2022/08/17 10:29:45;;;;;;;;;26.67;22.67;;;;;23.35;61.74;100598.63;5118076;27;45270;-63
2022/08/17 10:32:18;;;;;;;;;32.67;29.67;;;;;23.28;61.99;100583.53;5117855;27;45269;-64
2022/08/17 10:35:28;;;;;;;;;30.00;30.00;;;;;23.21;62.92;100586.31;5118016;27;45263;-64
2022/08/17 10:38:24;;;;;;;;;30.00;29.33;;;;;23.22;62.24;100587.16;5110142;27;46443;-67
2022/08/17 10:41:23;;;;;;;;;35.00;26.67;;;;;23.13;63.01;100578.53;5117708;27;45469;-65
2022/08/17 10:44:03;;;;;;;;;33.33;31.33;;;;;23.12;63.28;100587.72;5106042;27;45322;-62
2022/08/17 10:46:41;;;;;;;;;24.67;24.67;;;;;23.09;63.24;100585.47;5118030;27;45445;-64
2022/08/17 10:49:21;;;;;;;;;30.33;27.00;;;;;23.07;63.09;100584.88;5117353;27;45711;-63
2022/08/17 10:51:51;;;;;;;;;30.50;26.50;;;;;23.12;63.38;100601.28;5117478;27;45440;-64
2022/08/17 10:54:22;;;;;;;;;28.67;26.67;;;;;23.16;63.17;100599.75;5117905;27;45518;-64
2022/08/17 10:56:50;;;;;;;;;29.67;27.33;;;;;23.17;62.87;100595.16;5117778;27;45420;-64
2022/08/17 10:59:33;;;;;;;;;28.33;28.33;;;;;23.23;62.85;100605.94;5117445;27;47398;-64
2022/08/17 11:02:21;;;;;;;;;29.67;29.67;;;;;23.34;61.90;100590.72;5117652;27;45461;-63
2022/08/17 11:04:59;;;;;;;;;33.33;30.33;;;;;23.40;62.24;100584.38;5117488;27;45353;-64
2022/08/17 11:07:27;;;;;;;;;36.00;32.67;;;;;23.52;61.78;100592.56;5116176;27;45257;-64
2022/08/17 11:10:14;;;;;;;;;34.00;31.00;;;;;23.63;61.39;100583.66;5117439;27;46645;-65
2022/08/17 11:13:00;;;;;;;;;29.67;28.67;;;;;23.81;61.21;100588.13;5117607;27;45525;-64
2022/08/17 11:15:25;;;;;;;;;34.67;33.00;;;;;24.03;60.49;100574.78;5117414;27;45309;-65
2022/08/17 11:18:11;;;;;;;;;35.33;32.67;;;;;24.17;59.73;100574.31;5117585;27;45345;-66
2022/08/17 11:20:54;;;;;;;;;26.67;26.67;;;;;24.29;59.34;100563.50;5117270;27;47466;-65
2022/08/17 11:23:28;;;;;;;;;32.67;29.00;;;;;24.45;58.54;100560.03;5115522;27;45427;-64
2022/08/17 11:25:57;;;;;;;;;33.67;30.67;;;;;24.57;58.59;100555.38;5116038;27;45382;-63
2022/08/17 11:28:33;;;;;;;;;33.33;31.33;;;;;24.79;58.12;100571.84;5116234;27;45527;-65
2022/08/17 11:31:06;;;;;;;;;32.33;31.33;;;;;24.97;57.59;100592.59;5115795;27;47778;-65
2022/08/17 11:33:31;;;;;;;;;37.00;32.33;;;;;25.19;57.29;100584.63;5117083;27;45327;-63
2022/08/17 11:36:11;;;;;;;;;35.33;32.67;;;;;25.51;56.67;100593.09;5117065;27;45503;-64
2022/08/17 11:38:56;;;;;;;;;36.33;33.33;;;;;25.76;55.66;100593.53;5117377;27;45294;-64
2022/08/17 11:41:31;;;;;;;;;33.33;31.67;;;;;26.02;55.11;100580.31;5117080;27;46556;-64
2022/08/17 11:44:25;;;;;;;;;38.33;33.67;;;;;26.12;54.44;100583.19;5117032;27;45476;-65
2022/08/17 11:52:48;;;;;;;;;31.67;31.00;;;;;26.42;53.52;100585.53;5119828;27;45743;-64
2022/08/17 11:55:33;;;;;;;;;35.33;33.00;;;;;26.41;53.48;100591.25;5120500;27;45312;-64
2022/08/17 11:58:30;;;;;;;;;31.00;29.33;;;;;26.38;53.41;100585.22;5119930;27;45230;-63
2022/08/17 12:00:57;;;;;;;;;33.33;31.67;;;;;26.40;53.26;100586.88;5120322;27;45460;-66